Wytheville, VA (24382)

12:25 AM EST on March 01, 2015 (GMT -0500)
King's Weather Station | Change Station
CLOSE
Current Station
Personal Weather Station
Location: Wytheville, VA
Elevation: 2395 ft
Nearby Weather Stations
Active Advisory: Winter Weather Advisory Active Notice: Record Report

Elev 2395 ft 36.96 °N, 81.08 °W | Updated 1 second ago

Overcast
Overcast
27.1 °F
Feels Like 27 °F
N
0.0
Wind Variable Wind from East
Gusts 2.0 mph

Today
High -- | Low -- °F
--% Chance of Precip.
Yesterday
High -- | Low -- °F
Precip. -- in
6:55 AM 6:18 PM
Waxing Gibbous, 82% visible
Pressure 30.53 in
Visibility 10.0 miles
Clouds Overcast 8000 ft
Windchill 27 °F
Dew Point 19 °F
Humidity 70%
Rainfall 0.00 in
Snow Depth Not available.
UV 0.0 out of 12
Pollen 1.90 out of 12
Air Quality Not available.
Flu Activity Not available.
METAR KMKJ 010515Z AUTO 05014KT 10SM OVC080 M01/M07 A3053 RMK AO2 T10151074

More Conditions Fewer Conditions

Pressure 30.53 in
Visibility 10.0 miles
Clouds Overcast 8000 ft
Windchill 27 °F
Dew Point 19 °F
Humidity 70%
Rainfall 0.00 in
Snow Depth Not available.
UV 0.0 out of 12
Pollen 1.90 out of 12
Air Quality Not available.
Flu Activity Not available.
METAR KMKJ 010515Z AUTO 05014KT 10SM OVC080 M01/M07 A3053 RMK AO2 T10151074

More Conditions Fewer Conditions

10-Day Weather Forecast

Almanac

Astronomy

Mar. 01, 2015 Rise Set
Actual Time
Civil Twilight
Nautical Twilight
Astronomical Twilight
Moon
Length of Visible Light
Length of Day
Tomorrow will be .
, % of the Moon is Illuminated

Today's Extremes

State Highs State Lows

Community

WunderPhotos

Upload Photos

1,801,335 photos uploaded!

WunderBlogs® & News

Nearby

Air Quality

  Air Quality AQ Index Pollutant
Not available.

Snow Depth

Station Depth Elevation

Earthquake Activity

City Distance Mag. Time & Date
Minimum magnitude displayed is 2.5.

Coastal Water Temperatures

Place Temperature

Nearby Weather Stations

Winter Weather Advisory
Statement as of 9:30 PM EST on February 28, 2015

... Winter Weather Advisory remains in effect from 4 am to 7 PM
EST Sunday...

* locations... Greenbrier valley... Alleghany Highlands and New
River valley.

* Hazard types... a wintry mix of snow... sleet... and freezing
rain.

* Accumulations... snow and sleet accumulation around an
inch... with a trace to one tenth of an inch of ice accretion.

* Timing... late tonight through 7 PM Sunday.

* Impacts... hazardous travel conditions. A light glaze of ice will
also coat elevated objects such as trees... powerlines... and
vehicles.

* Winds... south 5 to 10 mph. Gusts up to 20 mph in the higher
elevations.

* Temperatures... in the lower and mid 20s... then climbing into
the lower 30s Sunday afternoon.

Precautionary/preparedness actions...

This Winter Weather Advisory means that periods of
snow... sleet... or freezing rain will cause travel difficulties. Be
prepared for slippery roads and limited visibilities... and use
caution while driving.